createdAt,value
2024-04-01T00:00:40.061Z,92789.00
2024-04-01T00:01:40.122Z,92798.00
2024-04-01T00:02:40.175Z,92799.00
2024-04-01T00:03:40.236Z,92789.00
2024-04-01T00:04:40.262Z,92778.00
2024-04-01T00:05:40.306Z,92777.00
2024-04-01T00:06:40.376Z,92778.00
2024-04-01T00:07:40.451Z,92781.00
2024-04-01T00:08:40.491Z,92790.00
2024-04-01T00:09:40.523Z,92777.00
2024-04-01T00:10:40.588Z,92752.00
2024-04-01T00:11:40.621Z,92749.00
2024-04-01T00:12:40.704Z,92760.00
2024-04-01T00:13:40.765Z,92764.00
2024-04-01T00:14:40.777Z,92764.00
2024-04-01T00:15:40.833Z,92773.00
2024-04-01T00:16:40.903Z,92774.00
2024-04-01T00:17:41.004Z,92770.00
2024-04-01T00:18:41.019Z,92773.00
2024-04-01T00:19:41.063Z,92797.00
2024-04-01T00:20:41.092Z,92796.00
2024-04-01T00:21:41.150Z,92802.00
2024-04-01T00:22:41.218Z,92787.00
2024-04-01T00:23:41.303Z,92776.00
2024-04-01T00:24:41.321Z,92765.00
2024-04-01T00:25:41.398Z,92767.00
2024-04-01T00:26:41.465Z,92782.00
2024-04-01T00:27:41.496Z,92778.00
2024-04-01T00:28:41.541Z,92774.00
2024-04-01T00:29:41.612Z,92765.00
2024-04-01T00:30:41.647Z,92771.00
2024-04-01T00:31:41.747Z,92755.00
2024-04-01T00:32:41.807Z,92748.00
2024-04-01T00:33:41.834Z,92743.00
2024-04-01T00:34:41.862Z,92751.00
2024-04-01T00:35:41.930Z,92747.00
2024-04-01T00:36:42.006Z,92737.00
2024-04-01T00:37:42.037Z,92740.00
2024-04-01T00:38:42.095Z,92746.00
2024-04-01T00:39:42.147Z,92745.00
2024-04-01T00:40:42.219Z,92747.00
2024-04-01T00:41:42.262Z,92737.00
2024-04-01T00:42:42.312Z,92737.00
2024-04-01T00:43:42.381Z,92725.00
2024-04-01T00:44:42.457Z,92725.00
2024-04-01T00:45:42.482Z,92721.00
2024-04-01T00:46:42.556Z,92711.00
2024-04-01T00:47:42.602Z,92717.00
2024-04-01T00:48:42.688Z,92712.00
2024-04-01T00:49:42.701Z,92704.00
2024-04-01T00:50:42.765Z,92683.00
2024-04-01T00:51:42.804Z,92706.00
2024-04-01T00:52:42.870Z,92702.00
2024-04-01T00:53:42.912Z,92703.00
2024-04-01T00:54:42.991Z,92709.00
2024-04-01T00:55:43.025Z,92695.00
2024-04-01T00:56:43.089Z,92665.00
2024-04-01T00:57:43.155Z,92670.00
2024-04-01T00:58:43.195Z,92668.00
2024-04-01T00:59:43.243Z,92685.00
2024-04-01T01:00:43.311Z,92687.00
2024-04-01T01:01:43.338Z,92679.00
2024-04-01T01:02:43.395Z,92673.00
2024-04-01T01:03:43.442Z,92664.00
2024-04-01T01:04:43.501Z,92655.00
2024-04-01T01:05:43.574Z,92663.00
2024-04-01T01:06:43.589Z,92677.00
2024-04-01T01:07:43.634Z,92644.00
2024-04-01T01:08:43.722Z,92629.00
2024-04-01T01:09:43.752Z,92640.00
2024-04-01T01:10:43.793Z,92655.00
2024-04-01T01:11:43.871Z,92666.00
2024-04-01T01:12:43.990Z,92687.00
2024-04-01T01:13:43.962Z,92696.00
2024-04-01T01:14:44.018Z,92650.00
2024-04-01T01:15:44.062Z,92616.00
2024-04-01T01:16:44.128Z,92592.00
2024-04-01T01:17:44.227Z,92592.00
2024-04-01T01:18:44.250Z,92588.00
2024-04-01T01:19:44.286Z,92612.00
2024-04-01T01:20:44.341Z,92634.00
2024-04-01T01:21:44.426Z,92628.00
2024-04-01T01:22:44.460Z,92648.00
2024-04-01T01:23:44.546Z,92643.00
2024-04-01T01:24:44.566Z,92633.00
2024-04-01T01:25:44.636Z,92631.00
2024-04-01T01:26:44.684Z,92645.00
2024-04-01T01:27:44.728Z,92634.00
2024-04-01T01:28:44.810Z,92640.00
2024-04-01T01:29:44.865Z,92609.00
2024-04-01T01:30:44.930Z,92588.00
2024-04-01T01:31:44.994Z,92584.00
2024-04-01T01:32:45.068Z,92588.00
2024-04-01T01:33:45.116Z,92628.00
2024-04-01T01:34:45.162Z,92645.00
2024-04-01T01:35:45.227Z,92654.00
2024-04-01T01:36:45.255Z,92633.00
2024-04-01T01:37:45.324Z,92636.00
2024-04-01T01:38:45.394Z,92631.00
2024-04-01T01:39:46.281Z,92613.00
2024-04-01T01:40:45.477Z,92587.00
2024-04-01T01:41:45.529Z,92574.00
2024-04-01T01:42:45.584Z,92571.00
2024-04-01T01:43:45.648Z,92595.00
2024-04-01T01:44:45.707Z,92603.00
2024-04-01T01:45:45.751Z,92614.00
2024-04-01T01:46:45.794Z,92614.00
2024-04-01T01:47:45.865Z,92638.00
2024-04-01T01:48:45.919Z,92656.00
2024-04-01T01:49:45.965Z,92661.00
2024-04-01T01:50:46.010Z,92660.00
2024-04-01T01:51:46.074Z,92659.00
2024-04-01T01:52:46.113Z,92633.00
2024-04-01T01:53:46.191Z,92640.00
2024-04-01T01:54:46.217Z,92638.00
2024-04-01T01:55:46.266Z,92648.00
2024-04-01T01:56:46.345Z,92644.00
2024-04-01T01:57:46.400Z,92620.00
2024-04-01T01:58:46.455Z,92608.00
2024-04-01T01:59:46.497Z,92610.00
2024-04-01T02:00:46.559Z,92610.00
2024-04-01T02:01:46.610Z,92589.00
2024-04-01T02:02:46.698Z,92591.00
2024-04-01T02:03:46.730Z,92590.00
2024-04-01T02:04:46.776Z,92593.00
2024-04-01T02:05:46.816Z,92578.00
2024-04-01T02:06:46.880Z,92576.00
2024-04-01T02:07:46.936Z,92593.00
2024-04-01T02:08:47.004Z,92590.00
2024-04-01T02:09:47.050Z,92587.00
2024-04-01T02:10:47.150Z,92552.00
2024-04-01T02:11:47.162Z,92587.00
2024-04-01T02:12:47.235Z,92583.00
2024-04-01T02:13:47.303Z,92581.00
2024-04-01T02:14:47.380Z,92598.00
2024-04-01T02:15:47.415Z,92601.00
2024-04-01T02:16:47.471Z,92617.00
2024-04-01T02:17:47.529Z,92628.00
2024-04-01T02:18:47.596Z,92618.00
2024-04-01T02:19:47.651Z,92635.00
2024-04-01T02:20:47.775Z,92637.00
2024-04-01T02:21:47.836Z,92615.00
2024-04-01T02:22:47.785Z,92607.00
2024-04-01T02:23:47.875Z,92596.00
2024-04-01T02:24:47.904Z,92610.00
2024-04-01T02:25:47.955Z,92659.00
2024-04-01T02:26:48.016Z,92653.00
2024-04-01T02:27:48.057Z,92666.00
2024-04-01T02:28:48.148Z,92656.00
2024-04-01T02:29:48.177Z,92652.00
2024-04-01T02:30:48.251Z,92647.00
2024-04-01T02:31:48.308Z,92650.00
2024-04-01T02:32:48.373Z,92646.00
2024-04-01T02:33:48.414Z,92628.00
2024-04-01T02:34:48.465Z,92624.00
2024-04-01T02:35:48.551Z,92639.00
2024-04-01T02:36:48.598Z,92652.00
2024-04-01T02:37:48.648Z,92637.00
2024-04-01T02:38:48.765Z,92655.00
2024-04-01T02:39:48.777Z,92648.00
2024-04-01T02:40:48.838Z,92673.00
2024-04-01T02:41:48.890Z,92667.00
2024-04-01T02:42:48.956Z,92655.00
2024-04-01T02:43:49.026Z,92670.00
2024-04-01T02:44:49.063Z,92675.00
2024-04-01T02:45:49.129Z,92698.00
2024-04-01T02:46:49.189Z,92666.00
2024-04-01T02:47:49.234Z,92702.00
2024-04-01T02:48:49.317Z,92715.00
2024-04-01T02:49:49.357Z,92713.00
2024-04-01T02:50:49.413Z,92722.00
2024-04-01T02:51:49.490Z,92718.00
2024-04-01T02:52:49.538Z,92723.00
2024-04-01T02:53:49.652Z,92726.00
2024-04-01T02:54:49.656Z,92717.00
2024-04-01T02:55:49.735Z,92692.00
2024-04-01T02:56:49.789Z,92684.00
2024-04-01T02:57:49.861Z,92670.00
2024-04-01T02:58:49.934Z,92669.00
2024-04-01T02:59:50.004Z,92665.00
2024-04-01T03:00:50.076Z,92654.00
2024-04-01T03:01:50.100Z,92642.00
2024-04-01T03:02:50.164Z,92636.00
2024-04-01T03:03:50.245Z,92656.00
2024-04-01T03:04:50.328Z,92642.00
2024-04-01T03:05:50.374Z,92641.00
2024-04-01T03:06:50.408Z,92618.00
2024-04-01T03:07:50.465Z,92630.00
2024-04-01T03:08:50.544Z,92627.00
2024-04-01T03:09:50.600Z,92626.00
2024-04-01T03:10:50.664Z,92629.00
2024-04-01T03:11:50.709Z,92650.00
2024-04-01T03:12:50.785Z,92643.00
2024-04-01T03:13:50.910Z,92636.00
2024-04-01T03:14:50.908Z,92648.00
2024-04-01T03:15:50.972Z,92636.00
2024-04-01T03:16:51.038Z,92633.00
2024-04-01T03:17:51.097Z,92637.00
2024-04-01T03:18:51.167Z,92652.00
2024-04-01T03:19:51.222Z,92679.00
2024-04-01T03:20:51.289Z,92692.00
2024-04-01T03:21:51.345Z,92688.00
2024-04-01T03:22:51.413Z,92693.00
2024-04-01T03:23:52.967Z,92665.00
2024-04-01T03:24:51.546Z,92669.00
2024-04-01T03:25:51.637Z,92665.00
2024-04-01T03:26:51.675Z,92651.00
2024-04-01T03:27:51.735Z,92659.00
2024-04-01T03:28:51.803Z,92659.00
2024-04-01T03:29:51.897Z,92664.00
2024-04-01T03:30:51.974Z,92670.00
2024-04-01T03:31:52.033Z,92678.00
2024-04-01T03:32:52.081Z,92683.00
2024-04-01T03:33:52.174Z,92686.00
2024-04-01T03:34:52.210Z,92673.00
2024-04-01T03:35:52.273Z,92674.00
2024-04-01T03:36:52.341Z,92677.00
2024-04-01T03:37:52.414Z,92684.00
2024-04-01T03:38:52.472Z,92676.00
2024-04-01T03:39:52.535Z,92688.00
2024-04-01T03:40:52.608Z,92700.00
2024-04-01T03:41:52.678Z,92685.00
2024-04-01T03:42:52.754Z,92682.00
2024-04-01T03:43:52.818Z,92698.00
2024-04-01T03:44:52.887Z,92703.00
2024-04-01T03:45:52.954Z,92690.00
2024-04-01T03:46:53.022Z,92692.00
2024-04-01T03:47:53.078Z,92695.00
2024-04-01T03:48:53.142Z,92706.00
2024-04-01T03:49:53.216Z,92715.00
2024-04-01T03:50:53.277Z,92720.00
2024-04-01T03:51:53.344Z,92716.00
2024-04-01T03:52:53.401Z,92723.00
2024-04-01T03:53:53.472Z,92742.00
2024-04-01T03:54:53.518Z,92742.00
2024-04-01T03:55:53.620Z,92747.00
2024-04-01T03:56:53.658Z,92752.00
2024-04-01T03:57:53.750Z,92736.00
2024-04-01T03:58:53.810Z,92746.00
2024-04-01T03:59:53.887Z,92753.00
2024-04-01T04:00:53.926Z,92764.00
2024-04-01T04:01:53.976Z,92772.00
2024-04-01T04:02:54.044Z,92773.00
2024-04-01T04:03:54.115Z,92758.00
2024-04-01T04:04:54.184Z,92759.00
2024-04-01T04:05:54.258Z,92755.00
2024-04-01T04:06:54.320Z,92750.00
2024-04-01T04:07:54.395Z,92747.00
2024-04-01T04:08:54.463Z,92750.00
2024-04-01T04:09:54.521Z,92758.00
2024-04-01T04:10:54.635Z,92766.00
2024-04-01T04:11:54.684Z,92767.00
2024-04-01T04:12:54.748Z,92769.00
2024-04-01T04:13:54.810Z,92776.00
2024-04-01T04:14:54.867Z,92772.00
2024-04-01T04:15:54.948Z,92777.00
2024-04-01T04:16:54.989Z,92772.00
2024-04-01T04:17:55.045Z,92768.00
2024-04-01T04:18:55.144Z,92777.00
2024-04-01T04:19:55.186Z,92782.00
2024-04-01T04:20:55.254Z,92789.00
2024-04-01T04:21:55.324Z,92790.00
2024-04-01T04:22:55.376Z,92796.00
2024-04-01T04:23:55.450Z,92792.00
2024-04-01T04:24:55.505Z,92789.00
2024-04-01T04:25:55.558Z,92780.00
2024-04-01T04:26:55.631Z,92769.00
2024-04-01T04:27:55.710Z,92760.00
2024-04-01T04:28:55.759Z,92758.00
2024-04-01T04:29:55.823Z,92756.00
2024-04-01T04:30:55.904Z,92754.00
2024-04-01T04:31:55.934Z,92760.00
2024-04-01T04:32:56.010Z,92763.00
2024-04-01T04:33:56.059Z,92767.00
2024-04-01T04:34:56.128Z,92781.00
2024-04-01T04:35:56.176Z,92783.00
2024-04-01T04:36:56.268Z,92796.00
2024-04-01T04:37:56.314Z,92799.00
2024-04-01T04:38:56.879Z,92807.00
2024-04-01T04:39:56.434Z,92814.00
2024-04-01T04:40:56.512Z,92818.00
2024-04-01T04:41:56.579Z,92820.00
2024-04-01T04:43:03.980Z,92819.00
2024-04-01T04:44:03.872Z,92820.00
2024-04-01T04:45:03.903Z,92817.00
2024-04-01T04:46:03.903Z,92812.00
2024-04-01T04:47:03.903Z,92814.00
2024-04-01T04:48:03.896Z,92818.00
2024-04-01T04:49:03.870Z,92815.00
2024-04-01T04:50:03.917Z,92809.00
2024-04-01T04:51:03.933Z,92801.00
2024-04-01T04:52:03.918Z,92793.00
2024-04-01T04:53:03.887Z,92793.00
2024-04-01T04:54:03.949Z,92789.00
2024-04-01T04:55:03.885Z,92788.00
2024-04-01T04:56:03.883Z,92790.00
2024-04-01T04:57:04.010Z,92788.00
2024-04-01T04:58:03.895Z,92784.00
2024-04-01T04:59:03.910Z,92786.00
2024-04-01T05:00:03.921Z,92782.00
2024-04-01T05:01:03.883Z,92785.00
2024-04-01T05:02:03.891Z,92796.00
2024-04-01T05:03:03.906Z,92800.00
2024-04-01T05:04:03.904Z,92804.00
2024-04-01T05:05:03.900Z,92800.00
2024-04-01T05:06:03.923Z,92795.00
2024-04-01T05:07:03.889Z,92790.00
2024-04-01T05:08:03.915Z,92785.00
2024-04-01T05:09:03.934Z,92784.00
2024-04-01T05:10:03.975Z,92787.00
2024-04-01T05:11:04.045Z,92797.00
2024-04-01T05:12:04.111Z,92793.00
2024-04-01T05:13:04.207Z,92796.00
2024-04-01T05:14:04.250Z,92794.00
2024-04-01T05:15:04.318Z,92798.00
2024-04-01T05:16:04.398Z,92797.00
2024-04-01T05:17:04.500Z,92800.00
2024-04-01T05:18:04.602Z,92808.00
2024-04-01T05:19:04.643Z,92810.00
2024-04-01T05:20:04.708Z,92815.00
2024-04-01T05:21:04.766Z,92814.00
2024-04-01T05:22:04.799Z,92827.00
2024-04-01T05:23:04.880Z,92823.00
2024-04-01T05:24:04.980Z,92820.00
2024-04-01T05:25:05.044Z,92814.00
2024-04-01T05:26:05.095Z,92817.00
2024-04-01T05:27:05.200Z,92816.00
2024-04-01T05:28:05.212Z,92814.00
2024-04-01T05:29:06.137Z,92813.00
2024-04-01T05:30:05.394Z,92811.00
2024-04-01T05:31:05.426Z,92815.00
2024-04-01T05:32:05.539Z,92820.00
2024-04-01T05:33:05.569Z,92817.00
2024-04-01T05:34:05.653Z,92815.00
2024-04-01T05:35:05.713Z,92805.00
2024-04-01T05:36:05.784Z,92799.00
2024-04-01T05:37:05.834Z,92793.00
2024-04-01T05:38:05.911Z,92802.00
2024-04-01T05:39:05.994Z,92803.00
2024-04-01T05:40:06.038Z,92808.00
2024-04-01T05:41:06.129Z,92812.00
2024-04-01T05:42:06.196Z,92821.00
2024-04-01T05:43:06.257Z,92822.00
2024-04-01T05:44:06.375Z,92814.00
2024-04-01T05:45:06.422Z,92810.00
2024-04-01T05:46:06.471Z,92803.00
2024-04-01T05:47:06.536Z,92796.00
2024-04-01T05:48:06.600Z,92795.00
2024-04-01T05:49:06.680Z,92794.00
2024-04-01T05:50:06.749Z,92788.00
2024-04-01T05:51:06.809Z,92790.00
2024-04-01T05:52:06.878Z,92798.00
2024-04-01T05:53:06.951Z,92808.00
2024-04-01T05:54:07.019Z,92812.00
2024-04-01T05:55:07.092Z,92812.00
2024-04-01T05:56:07.212Z,92806.00
2024-04-01T05:57:07.227Z,92803.00
2024-04-01T05:58:07.298Z,92791.00
2024-04-01T05:59:07.385Z,92780.00
2024-04-01T06:00:07.527Z,92784.00
2024-04-01T06:01:07.507Z,92791.00
2024-04-01T06:02:07.586Z,92806.00
2024-04-01T06:03:07.650Z,92802.00
2024-04-01T06:04:07.751Z,92807.00
2024-04-01T06:05:07.791Z,92815.00
2024-04-01T06:06:07.851Z,92816.00
2024-04-01T06:07:07.914Z,92810.00
2024-04-01T06:08:07.997Z,92804.00
2024-04-01T06:09:08.061Z,92784.00
2024-04-01T06:10:08.098Z,92778.00
2024-04-01T06:11:08.176Z,92789.00
2024-04-01T06:12:08.236Z,92794.00
2024-04-01T06:13:08.335Z,92797.00
2024-04-01T06:14:08.419Z,92798.00
2024-04-01T06:15:08.452Z,92784.00
2024-04-01T06:16:08.519Z,92749.00
2024-04-01T06:17:08.599Z,92712.00
2024-04-01T06:18:08.679Z,92695.00
2024-04-01T06:19:08.744Z,92684.00
2024-04-01T06:20:08.807Z,92684.00
2024-04-01T06:21:08.875Z,92692.00
2024-04-01T06:22:08.927Z,92687.00
2024-04-01T06:23:09.007Z,92685.00
2024-04-01T06:24:09.091Z,92683.00
2024-04-01T06:25:09.145Z,92667.00
2024-04-01T06:26:09.257Z,92656.00
2024-04-01T06:27:09.298Z,92641.00
2024-04-01T06:28:09.357Z,92636.00
2024-04-01T06:29:09.457Z,92633.00
2024-04-01T06:30:09.517Z,92628.00
2024-04-01T06:31:09.569Z,92635.00
2024-04-01T06:32:09.635Z,92644.00
2024-04-01T06:33:09.732Z,92652.00
2024-04-01T06:34:09.757Z,92689.00
2024-04-01T06:35:09.828Z,92721.00
2024-04-01T06:36:09.902Z,92738.00
2024-04-01T06:37:09.968Z,92746.00
2024-04-01T06:38:10.014Z,92756.00
2024-04-01T06:39:10.085Z,92765.00
2024-04-01T06:40:10.130Z,92765.00
2024-04-01T06:41:10.194Z,92772.00
2024-04-01T06:42:10.252Z,92776.00
2024-04-01T06:43:10.301Z,92791.00
2024-04-01T06:44:10.372Z,92790.00
2024-04-01T06:45:10.423Z,92786.00
2024-04-01T06:46:10.488Z,92790.00
2024-04-01T06:47:10.570Z,92789.00
2024-04-01T06:48:10.612Z,92794.00
2024-04-01T06:49:10.682Z,92799.00
2024-04-01T06:50:10.748Z,92782.00
2024-04-01T06:51:10.827Z,92769.00
2024-04-01T06:52:10.878Z,92771.00
2024-04-01T06:53:10.981Z,92752.00
2024-04-01T06:54:11.031Z,92752.00
2024-04-01T06:55:11.110Z,92766.00
2024-04-01T06:56:11.170Z,92769.00
2024-04-01T06:57:11.203Z,92773.00
2024-04-01T06:58:11.278Z,92770.00
2024-04-01T06:59:11.386Z,92785.00
2024-04-01T07:00:11.413Z,92777.00
2024-04-01T07:01:11.484Z,92785.00
2024-04-01T07:02:11.538Z,92781.00
2024-04-01T07:03:11.618Z,92784.00
2024-04-01T07:04:11.667Z,92784.00
2024-04-01T07:05:11.758Z,92779.00
2024-04-01T07:06:11.782Z,92766.00
2024-04-01T07:07:11.855Z,92760.00
2024-04-01T07:08:11.914Z,92753.00
2024-04-01T07:09:12.019Z,92750.00
2024-04-01T07:10:12.048Z,92751.00
2024-04-01T07:11:12.116Z,92753.00
2024-04-01T07:12:12.161Z,92759.00
2024-04-01T07:13:12.252Z,92761.00
2024-04-01T07:14:12.323Z,92751.00
2024-04-01T07:15:12.373Z,92777.00
2024-04-01T07:16:12.495Z,92787.00
2024-04-01T07:17:12.543Z,92799.00
2024-04-01T07:18:12.597Z,92806.00
2024-04-01T07:19:12.640Z,92800.00
2024-04-01T07:20:12.713Z,92803.00
2024-04-01T07:21:12.803Z,92796.00
2024-04-01T07:22:12.866Z,92791.00
2024-04-01T07:23:12.935Z,92793.00
2024-04-01T07:24:13.003Z,92796.00
2024-04-01T07:25:13.064Z,92794.00
2024-04-01T07:26:13.138Z,92795.00
2024-04-01T07:27:13.204Z,92791.00
2024-04-01T07:28:13.285Z,92785.00
2024-04-01T07:29:13.352Z,92789.00
2024-04-01T07:30:13.421Z,92791.00
2024-04-01T07:31:13.519Z,92794.00
2024-04-01T07:32:13.560Z,92799.00
2024-04-01T07:33:13.630Z,92805.00
2024-04-01T07:34:13.700Z,92805.00
2024-04-01T07:35:13.776Z,92813.00
2024-04-01T07:36:13.837Z,92821.00
2024-04-01T07:37:13.894Z,92821.00
2024-04-01T07:38:13.973Z,92822.00
2024-04-01T07:39:14.049Z,92825.00
2024-04-01T07:40:14.082Z,92841.00
2024-04-01T07:41:14.152Z,92848.00
2024-04-01T07:42:14.236Z,92849.00
2024-04-01T07:43:14.311Z,92849.00
2024-04-01T07:44:14.361Z,92843.00
2024-04-01T07:45:14.422Z,92849.00
2024-04-01T07:46:14.495Z,92849.00
2024-04-01T07:47:14.574Z,92854.00
2024-04-01T07:48:14.633Z,92863.00
2024-04-01T07:49:14.685Z,92864.00
2024-04-01T07:50:14.789Z,92870.00
2024-04-01T07:51:15.053Z,92875.00
2024-04-01T07:52:14.950Z,92875.00
2024-04-01T07:53:15.604Z,92882.00
2024-04-01T07:54:15.019Z,92884.00
2024-04-01T07:55:15.097Z,92892.00
2024-04-01T07:56:15.164Z,92888.00
2024-04-01T07:57:15.209Z,92884.00
2024-04-01T07:58:15.305Z,92884.00
2024-04-01T07:59:15.348Z,92882.00
2024-04-01T08:00:15.416Z,92881.00
2024-04-01T08:01:15.511Z,92886.00
2024-04-01T08:02:15.532Z,92879.00
2024-04-01T08:03:15.634Z,92880.00
2024-04-01T08:04:15.668Z,92882.00
2024-04-01T08:05:15.735Z,92890.00
2024-04-01T08:06:15.805Z,92899.00
2024-04-01T08:07:15.870Z,92903.00
2024-04-01T08:08:15.926Z,92910.00
2024-04-01T08:09:16.004Z,92908.00
2024-04-01T08:10:16.067Z,92908.00
2024-04-01T08:11:16.140Z,92909.00
2024-04-01T08:12:16.220Z,92910.00
2024-04-01T08:13:16.260Z,92911.00
2024-04-01T08:14:16.325Z,92906.00
2024-04-01T08:15:16.408Z,92894.00
2024-04-01T08:16:16.469Z,92879.00
2024-04-01T08:17:16.527Z,92885.00
2024-04-01T08:18:16.589Z,92898.00
2024-04-01T08:19:16.688Z,92901.00
2024-04-01T08:20:16.716Z,92904.00
2024-04-01T08:21:16.788Z,92905.00
2024-04-01T08:22:16.863Z,92902.00
2024-04-01T08:23:16.926Z,92901.00
2024-04-01T08:24:16.994Z,92900.00
2024-04-01T08:25:17.069Z,92893.00
2024-04-01T08:26:17.137Z,92882.00
2024-04-01T08:27:17.211Z,92873.00
2024-04-01T08:28:17.263Z,92878.00
2024-04-01T08:29:17.388Z,92874.00
2024-04-01T08:30:17.431Z,92870.00
2024-04-01T08:31:17.507Z,92853.00
2024-04-01T08:32:17.563Z,92857.00
2024-04-01T08:33:17.633Z,92859.00
2024-04-01T08:34:17.689Z,92861.00
2024-04-01T08:35:17.750Z,92868.00
2024-04-01T08:36:17.810Z,92874.00
2024-04-01T08:37:17.870Z,92883.00
2024-04-01T08:38:17.945Z,92899.00
2024-04-01T08:39:17.997Z,92911.00
2024-04-01T08:40:18.061Z,92919.00
2024-04-01T08:41:18.146Z,92927.00
2024-04-01T08:42:18.199Z,92937.00
2024-04-01T08:43:18.259Z,92940.00
2024-04-01T08:44:18.343Z,92946.00
2024-04-01T08:45:18.420Z,92943.00
2024-04-01T08:46:18.445Z,92938.00
2024-04-01T08:47:18.539Z,92940.00
2024-04-01T08:48:18.578Z,92936.00
2024-04-01T08:49:18.663Z,92940.00
2024-04-01T08:50:18.712Z,92945.00
2024-04-01T08:51:18.783Z,92955.00
2024-04-01T08:52:18.849Z,92962.00
2024-04-01T08:53:18.929Z,92972.00
2024-04-01T08:54:18.994Z,92972.00
2024-04-01T08:55:19.064Z,92970.00
2024-04-01T08:56:19.146Z,92974.00
2024-04-01T08:57:19.210Z,92975.00
2024-04-01T08:58:19.262Z,92976.00
2024-04-01T08:59:19.335Z,92986.00
2024-04-01T09:00:19.436Z,92988.00
2024-04-01T09:01:19.463Z,92989.00
2024-04-01T09:02:19.559Z,92996.00
2024-04-01T09:03:19.607Z,93000.00
2024-04-01T09:04:19.681Z,93003.00
2024-04-01T09:05:19.734Z,93004.00
2024-04-01T09:06:19.822Z,93008.00
2024-04-01T09:07:19.875Z,93005.00
2024-04-01T09:08:19.941Z,93003.00
2024-04-01T09:09:20.029Z,92998.00
2024-04-01T09:10:20.102Z,93001.00
2024-04-01T09:11:20.167Z,92998.00
2024-04-01T09:12:20.215Z,92997.00
2024-04-01T09:13:20.286Z,92996.00
2024-04-01T09:14:20.358Z,93001.00
2024-04-01T09:15:20.476Z,93004.00
2024-04-01T09:16:20.496Z,93003.00
2024-04-01T09:17:20.538Z,93001.00
2024-04-01T09:18:20.626Z,92994.00
2024-04-01T09:19:20.693Z,92992.00
2024-04-01T09:20:20.737Z,92989.00
2024-04-01T09:21:20.817Z,92991.00
2024-04-01T09:22:20.857Z,92995.00
2024-04-01T09:23:20.923Z,92997.00
2024-04-01T09:24:20.979Z,92996.00
2024-04-01T09:25:21.060Z,92993.00
2024-04-01T09:26:21.115Z,92992.00
2024-04-01T09:27:21.185Z,92993.00
2024-04-01T09:28:21.251Z,92989.00
2024-04-01T09:29:21.322Z,92992.00
2024-04-01T09:30:21.387Z,92994.00
2024-04-01T09:31:21.458Z,93003.00
2024-04-01T09:32:21.496Z,93012.00
2024-04-01T09:33:21.573Z,93017.00
2024-04-01T09:34:21.634Z,93018.00
2024-04-01T09:35:21.683Z,93019.00
2024-04-01T09:36:21.756Z,93017.00
2024-04-01T09:37:21.793Z,93020.00
2024-04-01T09:38:21.845Z,93019.00
2024-04-01T09:39:21.895Z,93019.00
2024-04-01T09:40:21.966Z,93016.00
2024-04-01T09:41:22.025Z,93012.00
2024-04-01T09:42:22.094Z,93009.00
2024-04-01T09:43:37.930Z,93008.00
2024-04-01T09:44:23.188Z,93007.00
2024-04-01T09:45:22.247Z,93008.00
2024-04-01T09:46:22.159Z,93012.00
2024-04-01T09:47:22.192Z,93015.00
2024-04-01T09:48:22.163Z,93014.00
2024-04-01T09:49:22.165Z,93008.00
2024-04-01T09:50:22.177Z,92996.00
2024-04-01T09:51:22.191Z,92994.00
2024-04-01T09:52:22.246Z,92993.00
2024-04-01T09:53:22.354Z,92993.00
2024-04-01T09:54:22.361Z,92991.00
2024-04-01T09:55:22.433Z,92993.00
2024-04-01T09:56:22.507Z,92995.00
2024-04-01T09:57:31.973Z,92992.00
2024-04-01T09:58:23.585Z,92990.00
2024-04-01T09:59:22.591Z,92987.00
2024-04-01T10:00:22.570Z,92987.00
2024-04-01T10:01:22.602Z,92986.00
2024-04-01T10:02:22.564Z,92986.00
2024-04-01T10:03:22.580Z,92992.00
2024-04-01T10:04:22.587Z,93001.00
2024-04-01T10:05:22.574Z,93007.00
2024-04-01T10:06:22.636Z,93013.00
2024-04-01T10:07:22.679Z,93014.00
2024-04-01T10:08:22.733Z,93010.00
2024-04-01T10:09:22.787Z,92995.00
2024-04-01T10:10:22.872Z,92981.00
2024-04-01T10:11:22.938Z,92966.00
2024-04-01T10:12:22.962Z,92963.00
2024-04-01T10:13:23.026Z,92964.00
2024-04-01T10:14:23.080Z,92964.00
2024-04-01T10:15:23.139Z,92962.00
2024-04-01T10:16:23.209Z,92971.00
2024-04-01T10:17:23.283Z,92983.00
2024-04-01T10:18:23.350Z,92994.00
2024-04-01T10:19:23.381Z,93006.00
2024-04-01T10:20:23.437Z,93014.00
2024-04-01T10:21:23.485Z,93019.00
2024-04-01T10:22:23.574Z,93016.00
2024-04-01T10:23:23.584Z,93010.00
2024-04-01T10:24:23.630Z,93008.00
2024-04-01T10:25:23.665Z,93014.00
2024-04-01T10:26:23.714Z,93020.00
2024-04-01T10:27:23.749Z,93021.00
2024-04-01T10:28:23.795Z,93023.00
2024-04-01T10:29:23.837Z,93022.00
2024-04-01T10:30:23.872Z,93021.00
2024-04-01T10:31:23.921Z,93019.00
2024-04-01T10:32:23.942Z,93019.00
2024-04-01T10:33:23.983Z,93017.00
2024-04-01T10:34:24.020Z,93014.00
2024-04-01T10:35:24.070Z,93010.00
2024-04-01T10:36:29.531Z,93006.00
2024-04-01T10:37:25.111Z,93006.00
2024-04-01T10:38:24.098Z,93005.00
2024-04-01T10:39:24.119Z,93001.00
2024-04-01T10:40:24.109Z,93005.00
2024-04-01T10:41:24.105Z,93014.00
2024-04-01T10:42:24.099Z,93024.00
2024-04-01T10:43:24.137Z,93031.00
2024-04-01T10:44:24.124Z,93038.00
2024-04-01T10:45:24.139Z,93042.00
2024-04-01T10:46:24.107Z,93048.00
2024-04-01T10:47:24.110Z,93049.00
2024-04-01T10:48:24.114Z,93054.00
2024-04-01T10:49:24.122Z,93056.00
2024-04-01T10:50:24.131Z,93055.00
2024-04-01T10:51:24.163Z,93054.00
2024-04-01T10:52:24.200Z,93049.00
2024-04-01T10:53:24.224Z,93046.00
2024-04-01T10:54:24.276Z,93045.00
2024-04-01T10:55:24.306Z,93046.00
2024-04-01T10:56:24.358Z,93038.00
2024-04-01T10:57:24.395Z,93038.00
2024-04-01T10:58:24.453Z,93038.00
2024-04-01T10:59:24.455Z,93038.00
2024-04-01T11:00:24.516Z,93039.00
2024-04-01T11:01:24.560Z,93044.00
2024-04-01T11:02:24.614Z,93047.00
2024-04-01T11:03:24.651Z,93047.00
2024-04-01T11:04:26.953Z,93049.00
2024-04-01T11:05:24.709Z,93049.00
2024-04-01T11:06:24.749Z,93049.00
2024-04-01T11:07:24.811Z,93051.00
2024-04-01T11:08:24.825Z,93051.00
2024-04-01T11:09:24.897Z,93054.00
2024-04-01T11:10:25.578Z,93056.00
2024-04-01T11:11:32.795Z,93058.00
2024-04-01T11:12:25.972Z,93064.00
2024-04-01T11:13:24.974Z,93072.00
2024-04-01T11:14:24.989Z,93072.00
2024-04-01T11:15:24.992Z,93074.00
2024-04-01T11:16:25.169Z,93075.00
2024-04-01T11:17:24.986Z,93070.00
2024-04-01T11:18:24.998Z,93074.00
2024-04-01T11:19:25.019Z,93077.00
2024-04-01T11:20:25.012Z,93084.00
2024-04-01T11:21:24.987Z,93087.00
2024-04-01T11:22:24.994Z,93084.00
2024-04-01T11:23:24.986Z,93082.00
2024-04-01T11:24:25.016Z,93084.00
2024-04-01T11:25:25.025Z,93086.00
2024-04-01T11:26:25.074Z,93088.00
2024-04-01T11:27:25.131Z,93090.00
2024-04-01T11:28:25.153Z,93092.00
2024-04-01T11:29:25.216Z,93088.00
2024-04-01T11:30:25.242Z,93088.00
2024-04-01T11:31:25.285Z,93086.00
2024-04-01T11:32:25.362Z,93085.00
2024-04-01T11:33:25.399Z,93085.00
2024-04-01T11:34:25.461Z,93082.00
2024-04-01T11:35:25.522Z,93081.00
2024-04-01T11:36:25.530Z,93084.00
2024-04-01T11:37:25.565Z,93087.00
2024-04-01T11:38:25.636Z,93093.00
2024-04-01T11:39:25.659Z,93097.00
2024-04-01T11:40:25.723Z,93102.00
2024-04-01T11:41:25.757Z,93102.00
2024-04-01T11:42:25.789Z,93103.00
2024-04-01T11:43:25.850Z,93107.00
2024-04-01T11:44:27.039Z,93108.00
2024-04-01T11:45:25.892Z,93109.00